Hastain, Missouri
Current Conditions -  °F | °C
As of 7:55 PM on Friday 24 Oct 2014 (Local Time) from KH21 Reporting Station
Clear Clear  
Wind Chill: 68°   Ceiling: Unl
Heat Index: 68°   Visibility: 10mi
Dew Point: 59°   Wind: 5mph
Humidity: 73%   Direction: 190°S
Pressure: 30.03"   Gusts: NA
Location:  38.1656°N, 93.1481°W
Report Text: KH21 250055Z AUTO 19004KT 10SM CLR 20/15 A3003 RMK AO2
Loading
Personal Weather Stations






























Interactive Weather Map New forecast layout! Learn more

10-Day Weather Forecast

Advertisements
Track Severe Weather on mobile